Time;durP1;ratioP1;P1;durP2;ratioP2;P2;SDS_P1;SDS_P2;PMS_P1;PMS_P2;Temp;Humidity;BMP_temperature;BMP_pressure;BME280_temperature;BME280_humidity;BME280_pressure;Samples;Min_cycle;Max_cycle;Signal;HPM_P1;HPM_P2
2022/12/27 00:00:39;;;;;;;2.15;0.98;;;;;;;6.86;100.00;98510.09;2602511;28;20146;-88
2022/12/27 00:02:14;;;;;;;3.25;0.93;;;;;;;6.85;100.00;98507.50;2597019;28;20045;-87
2022/12/27 00:03:30;;;;;;;2.33;0.82;;;;;;;6.90;100.00;98516.97;2601800;28;20049;-88
2022/12/27 00:04:46;;;;;;;2.85;1.17;;;;;;;6.77;100.00;98521.47;2602266;28;20049;-87
2022/12/27 00:06:06;;;;;;;2.15;0.85;;;;;;;6.77;100.00;98521.47;2602719;28;20064;-87
2022/12/27 00:07:21;;;;;;;1.75;1.00;;;;;;;7.01;100.00;98523.81;2600939;28;20080;-86
2022/12/27 00:08:37;;;;;;;1.30;0.82;;;;;;;7.02;100.00;98515.09;2600533;28;20587;-86
2022/12/27 00:09:53;;;;;;;2.53;1.00;;;;;;;6.98;100.00;98516.00;2601844;28;20053;-88
2022/12/27 00:11:12;;;;;;;1.27;0.98;;;;;;;7.00;100.00;98519.47;2601418;28;20048;-87
2022/12/27 00:12:28;;;;;;;2.22;1.10;;;;;;;7.23;100.00;98511.38;2601684;28;20049;-87
2022/12/27 00:13:44;;;;;;;2.05;1.10;;;;;;;7.27;100.00;98520.00;2602801;28;20044;-87
2022/12/27 00:15:00;;;;;;;1.52;0.90;;;;;;;6.86;100.00;98520.50;2602228;28;20195;-87
2022/12/27 00:16:19;;;;;;;1.17;0.70;;;;;;;6.75;100.00;98511.94;2601717;28;20041;-91
2022/12/27 00:17:34;;;;;;;1.40;0.90;;;;;;;6.96;100.00;98521.25;2598164;28;20381;-88
2022/12/27 00:18:51;;;;;;;1.17;0.70;;;;;;;7.03;100.00;98520.28;2601035;28;20107;-87
2022/12/27 00:20:07;;;;;;;2.53;0.90;;;;;;;7.04;100.00;98526.38;2601342;28;20500;-88
2022/12/27 00:21:24;;;;;;;2.30;0.82;;;;;;;6.78;100.00;98520.59;2600785;28;20049;-86
2022/12/27 00:22:39;;;;;;;1.25;0.70;;;;;;;7.01;100.00;98532.47;2601839;28;20049;-87
2022/12/27 00:23:56;;;;;;;1.10;0.82;;;;;;;7.16;100.00;98527.94;2601622;28;20409;-88
2022/12/27 00:25:12;;;;;;;1.17;0.80;;;;;;;7.01;100.00;98531.59;2596664;28;20053;-87
2022/12/27 00:26:32;;;;;;;1.63;0.88;;;;;;;6.86;100.00;98533.50;2600557;28;20055;-91
2022/12/27 00:27:48;;;;;;;1.55;0.80;;;;;;;6.97;100.00;98535.09;2602485;28;20499;-87
2022/12/27 00:29:09;;;;;;;1.23;0.80;;;;;;;6.93;100.00;98542.97;2602938;28;20061;-88
2022/12/27 00:30:25;;;;;;;1.48;0.90;;;;;;;7.08;100.00;98541.06;2601964;28;20080;-88
2022/12/27 00:31:40;;;;;;;0.70;0.68;;;;;;;6.76;100.00;98544.91;2600347;28;20076;-87
2022/12/27 00:32:56;;;;;;;1.58;0.68;;;;;;;6.99;100.00;98547.25;2600958;28;20068;-87
2022/12/27 00:34:11;;;;;;;1.27;0.60;;;;;;;7.00;100.00;98546.34;2601980;28;20076;-86
2022/12/27 00:35:27;;;;;;;1.17;0.70;;;;;;;7.02;100.00;98544.59;2602464;28;20076;-87
2022/12/27 00:36:43;;;;;;;1.13;0.80;;;;;;;7.37;100.00;98547.63;2602821;28;20495;-90
2022/12/27 00:37:58;;;;;;;1.35;0.70;;;;;;;7.43;100.00;98542.34;2602147;28;20060;-88
2022/12/27 00:39:14;;;;;;;1.23;0.95;;;;;;;7.52;100.00;98543.09;2601933;28;20071;-88
2022/12/27 00:40:30;;;;;;;1.35;0.70;;;;;;;7.45;100.00;98535.38;2600917;28;20515;-92
2022/12/27 00:41:45;;;;;;;0.52;0.50;;;;;;;7.45;100.00;98539.72;2601570;28;20050;-87
2022/12/27 00:43:01;;;;;;;2.50;0.75;;;;;;;7.35;100.00;98549.41;2601868;28;20055;-86
2022/12/27 00:44:16;;;;;;;1.38;0.85;;;;;;;7.25;100.00;98539.97;2601890;28;20068;-87
2022/12/27 00:45:32;;;;;;;1.42;0.70;;;;;;;7.23;100.00;98544.34;2602658;28;20065;-88
2022/12/27 00:46:48;;;;;;;1.00;0.77;;;;;;;7.21;100.00;98542.63;2602560;28;20048;-87
2022/12/27 00:48:03;;;;;;;0.68;0.60;;;;;;;6.97;100.00;98543.78;2596723;28;20189;-86
2022/12/27 00:49:19;;;;;;;0.93;0.73;;;;;;;7.10;100.00;98544.50;2600867;28;20049;-87
2022/12/27 00:50:35;;;;;;;1.05;0.70;;;;;;;7.10;100.00;98541.88;2601695;28;20568;-86
2022/12/27 00:51:50;;;;;;;2.10;0.93;;;;;;;7.15;100.00;98542.72;2601455;28;20084;-88
2022/12/27 00:53:07;;;;;;;0.85;0.63;;;;;;;7.18;100.00;98545.28;2601258;28;20064;-87
2022/12/27 00:54:22;;;;;;;1.15;0.90;;;;;;;7.12;100.00;98547.09;2600167;28;20061;-87
2022/12/27 00:55:41;;;;;;;0.80;0.70;;;;;;;6.98;100.00;98550.72;2600938;28;20416;-87
2022/12/27 00:56:57;;;;;;;1.42;0.70;;;;;;;7.03;100.00;98543.72;2600189;28;20045;-87
2022/12/27 00:58:12;;;;;;;0.65;0.50;;;;;;;7.13;100.00;98547.09;2601346;28;20660;-88
2022/12/27 00:59:28;;;;;;;2.33;0.70;;;;;;;7.03;100.00;98555.88;2600263;28;20063;-89
2022/12/27 01:00:44;;;;;;;0.45;0.40;;;;;;;6.84;100.00;98553.47;2596310;28;20096;-88
2022/12/27 01:02:00;;;;;;;0.55;0.47;;;;;;;7.00;100.00;98553.31;2600097;28;20054;-87
2022/12/27 01:03:16;;;;;;;0.63;0.40;;;;;;;6.97;100.00;98555.94;2600469;28;20049;-87
2022/12/27 01:04:31;;;;;;;0.60;0.50;;;;;;;7.05;100.00;98561.94;2601851;28;20347;-86
2022/12/27 01:05:47;;;;;;;0.47;0.30;;;;;;;7.06;100.00;98567.13;2596312;28;20556;-90
2022/12/27 01:07:03;;;;;;;0.30;0.30;;;;;;;7.09;100.00;98566.22;2602219;28;20053;-88
2022/12/27 01:08:18;;;;;;;1.05;0.40;;;;;;;7.18;100.00;98567.84;2600711;28;20048;-87
2022/12/27 01:09:34;;;;;;;0.50;0.50;;;;;;;7.03;100.00;98574.09;2601763;28;20061;-87
2022/12/27 01:10:50;;;;;;;1.63;0.30;;;;;;;7.13;100.00;98580.06;2596280;28;20053;-87
2022/12/27 01:12:05;;;;;;;1.52;0.52;;;;;;;7.04;100.00;98586.22;2601598;28;20056;-87
2022/12/27 01:13:21;;;;;;;0.80;0.60;;;;;;;6.97;100.00;98592.38;2602387;28;20041;-87
2022/12/27 01:14:36;;;;;;;0.52;0.50;;;;;;;6.89;100.00;98606.34;2620688;28;20049;-86
2022/12/27 01:15:52;;;;;;;0.60;0.50;;;;;;;7.00;100.00;98610.59;2613803;28;20049;-86
2022/12/27 01:17:08;;;;;;;2.00;0.63;;;;;;;7.04;100.00;98607.06;2601667;28;20049;-86
2022/12/27 01:18:23;;;;;;;0.50;0.50;;;;;;;6.97;100.00;98614.06;2602377;28;20073;-90
2022/12/27 01:19:39;;;;;;;0.60;0.60;;;;;;;6.99;100.00;98611.47;2601124;28;20049;-86
2022/12/27 01:20:55;;;;;;;0.95;0.50;;;;;;;6.88;100.00;98620.25;2601281;28;20058;-85
2022/12/27 01:22:10;;;;;;;0.45;0.40;;;;;;;6.88;100.00;98625.44;2600512;28;20136;-90
2022/12/27 01:23:26;;;;;;;1.13;0.22;;;;;;;7.03;100.00;98636.59;2601671;28;20060;-86
2022/12/27 01:24:42;;;;;;;0.82;0.50;;;;;;;6.86;100.00;98641.94;2601659;28;20053;-86
2022/12/27 01:26:03;;;;;;;0.30;0.30;;;;;;;6.74;100.00;98641.19;2600588;28;20071;-85
2022/12/27 01:27:18;;;;;;;0.30;0.30;;;;;;;6.86;100.00;98644.56;2600342;28;20076;-86
2022/12/27 01:28:34;;;;;;;0.30;0.30;;;;;;;6.95;100.00;98667.03;2601995;28;20056;-86
2022/12/27 01:29:49;;;;;;;0.43;0.25;;;;;;;6.56;100.00;98709.84;2602499;28;20415;-86
2022/12/27 01:31:11;;;;;;;0.55;0.20;;;;;;;6.68;100.00;98716.72;2600606;28;20053;-88
2022/12/27 01:32:27;;;;;;;1.02;0.60;;;;;;;6.22;100.00;98678.88;2601306;28;20065;-89
2022/12/27 01:33:42;;;;;;;0.28;0.28;;;;;;;6.10;100.00;98720.53;2601100;28;20080;-87
2022/12/27 01:34:58;;;;;;;0.32;0.30;;;;;;;6.10;100.00;98720.53;2601465;28;20045;-88
2022/12/27 01:36:20;;;;;;;0.75;0.22;;;;;;;6.19;100.00;98697.09;2601822;28;20053;-88
2022/12/27 01:37:35;;;;;;;0.38;0.38;;;;;;;6.42;100.00;98696.06;2602558;28;20048;-88
2022/12/27 01:38:51;;;;;;;0.22;0.22;;;;;;;6.18;100.00;98701.41;2601642;28;20049;-87
2022/12/27 01:40:07;;;;;;;1.40;0.43;;;;;;;6.07;100.00;98704.09;2600832;28;20060;-87
2022/12/27 01:43:04;;;;;;;0.20;0.20;;;;;;;5.90;100.00;98708.50;2602337;28;20049;-88
2022/12/27 01:44:38;;;;;;;0.10;0.10;;;;;;;5.81;100.00;98709.41;2600867;28;20040;-88
2022/12/27 01:45:53;;;;;;;0.17;0.17;;;;;;;5.96;100.00;98710.19;2601343;28;20059;-87
2022/12/27 01:47:34;;;;;;;0.35;0.30;;;;;;;5.98;100.00;98711.91;2595892;28;20103;-88
2022/12/27 01:48:50;;;;;;;0.30;0.30;;;;;;;6.05;100.00;98734.44;2601939;28;20060;-87
2022/12/27 01:50:30;;;;;;;0.20;0.20;;;;;;;6.00;100.00;98743.09;2600852;28;20494;-88
2022/12/27 01:51:45;;;;;;;0.70;0.30;;;;;;;5.86;100.00;98754.41;2600577;28;20049;-88
2022/12/27 01:53:12;;;;;;;1.02;0.40;;;;;;;5.85;100.00;98754.41;2600047;28;20058;-88
2022/12/27 01:54:27;;;;;;;0.50;0.40;;;;;;;5.89;100.00;98763.94;2600360;28;20053;-88
2022/12/27 01:56:01;;;;;;;0.40;0.20;;;;;;;5.96;100.00;98760.44;2600993;28;20551;-88
2022/12/27 01:57:17;;;;;;;0.30;0.30;;;;;;;5.88;100.00;98757.00;2602163;28;20057;-89
2022/12/27 01:58:41;;;;;;;1.15;0.28;;;;;;;5.91;100.00;98757.00;2599967;28;20053;-88
2022/12/27 01:59:57;;;;;;;0.20;0.20;;;;;;;5.54;100.00;98763.16;2596218;28;20077;-87
2022/12/27 02:01:37;;;;;;;0.52;0.20;;;;;;;5.40;100.00;98772.72;2600725;28;20099;-87
2022/12/27 02:02:52;;;;;;;0.35;0.15;;;;;;;5.44;100.00;98777.88;2600151;28;20099;-89
2022/12/27 02:04:15;;;;;;;0.45;0.30;;;;;;;5.60;100.00;98770.09;2601845;28;20514;-87
2022/12/27 02:05:31;;;;;;;;;;;;;;;5.55;100.00;98771.81;2600345;28;20042;-87
2022/12/27 02:06:47;;;;;;;0.22;0.22;;;;;;;5.48;100.00;98765.75;2602224;28;20391;-88
2022/12/27 02:08:09;;;;;;;0.60;0.35;;;;;;;5.28;100.00;98756.28;2596030;28;20053;-88
2022/12/27 02:09:34;;;;;;;0.28;0.28;;;;;;;5.22;100.00;98769.25;2600751;28;20485;-88
2022/12/27 02:10:50;;;;;;;0.30;0.30;;;;;;;5.34;100.00;98768.41;2600279;28;20148;-88
2022/12/27 02:12:08;;;;;;;0.30;0.30;;;;;;;5.40;100.00;98770.97;2601300;28;20129;-88
2022/12/27 02:13:23;;;;;;;0.40;0.40;;;;;;;5.22;100.00;98779.66;2601727;28;20045;-87
2022/12/27 02:14:42;;;;;;;0.40;0.38;;;;;;;5.20;100.00;98781.38;2599716;28;20064;-87
2022/12/27 02:15:58;;;;;;;0.40;0.30;;;;;;;4.81;100.00;98791.78;2599638;28;20052;-88
2022/12/27 02:17:17;;;;;;;0.45;0.40;;;;;;;4.82;100.00;98801.28;2599721;28;20081;-87
2022/12/27 02:18:33;;;;;;;0.73;0.22;;;;;;;5.13;100.00;98809.06;2601546;28;20503;-87
2022/12/27 02:20:10;;;;;;;0.50;0.40;;;;;;;5.17;100.00;98800.44;2596031;28;20137;-87
2022/12/27 02:22:03;;;;;;;0.20;0.20;;;;;;;5.18;100.00;98809.06;2601408;28;20488;-90
2022/12/27 02:25:14;;;;;;;0.82;0.40;;;;;;;5.02;100.00;98822.06;2599712;28;20144;-87
2022/12/27 02:26:44;;;;;;;0.28;0.28;;;;;;;5.06;100.00;98825.53;2602007;28;20396;-87
2022/12/27 02:28:18;;;;;;;0.40;0.32;;;;;;;4.93;100.00;98827.22;2601110;28;20087;-88
2022/12/27 02:29:58;;;;;;;0.80;0.60;;;;;;;4.87;100.00;98833.28;2599877;28;20484;-87
2022/12/27 02:31:26;;;;;;;0.60;0.50;;;;;;;4.91;100.00;98840.22;2599785;28;20060;-88
2022/12/27 02:32:57;;;;;;;0.50;0.50;;;;;;;4.99;100.00;98841.94;2599757;28;20053;-88
2022/12/27 02:34:19;;;;;;;0.90;0.57;;;;;;;5.12;100.00;98846.28;2599905;28;20053;-88
2022/12/27 02:35:38;;;;;;;;;;;;;;;5.15;100.00;98853.22;2601223;28;20492;-90
2022/12/27 02:37:08;;;;;;;0.57;0.50;;;;;;;4.83;100.00;98852.31;2602555;28;20383;-88
2022/12/27 02:38:29;;;;;;;1.27;0.55;;;;;;;4.83;100.00;98862.69;2600261;28;20053;-87
2022/12/27 02:39:47;;;;;;;1.08;0.73;;;;;;;4.83;100.00;98865.28;2600238;28;20057;-88
2022/12/27 02:53:25;;;;;;;1.73;1.00;;;;;;;5.21;100.00;98881.75;2598992;28;20181;-87
2022/12/27 02:55:14;;;;;;;2.13;0.80;;;;;;;5.23;100.00;98895.59;2595983;28;20054;-87
2022/12/27 02:57:08;;;;;;;1.50;1.10;;;;;;;5.14;100.00;98896.47;2602922;28;20056;-87
2022/12/27 02:58:26;;;;;;;1.70;0.90;;;;;;;5.18;100.00;98898.22;2602292;28;20063;-87
2022/12/27 03:03:27;;;;;;;1.48;1.20;;;;;;;4.87;100.00;98900.72;2601938;28;20535;-87
2022/12/27 03:04:59;;;;;;;2.42;1.27;;;;;;;5.05;100.00;98899.06;2604431;28;20472;-87
2022/12/27 03:06:46;;;;;;;2.30;0.87;;;;;;;4.95;100.00;98908.53;2602551;28;20057;-88
2022/12/27 03:08:22;;;;;;;1.55;0.80;;;;;;;4.52;100.00;98924.84;2601437;28;20470;-87
2022/12/27 03:16:55;;;;;;;3.28;2.33;;;;;;;3.96;100.00;98950.44;2603094;28;20073;-86
2022/12/27 03:18:17;;;;;;;3.05;1.88;;;;;;;3.84;100.00;98953.78;2602924;28;20047;-86
2022/12/27 03:26:13;;;;;;;2.65;1.55;;;;;;;3.85;100.00;98946.91;2602374;28;20073;-87
2022/12/27 03:27:33;;;;;;;3.17;1.85;;;;;;;3.84;100.00;98958.13;2602335;28;20053;-92
2022/12/27 03:33:40;;;;;;;7.68;2.78;;;;;;;3.86;100.00;98988.38;2601127;28;20053;-86
2022/12/27 03:35:17;;;;;;;3.40;2.08;;;;;;;3.63;100.00;98985.56;2603357;28;20063;-90
2022/12/27 03:38:11;;;;;;;3.22;2.03;;;;;;;3.68;100.00;98986.50;2602851;28;20073;-88
2022/12/27 03:39:35;;;;;;;4.38;2.17;;;;;;;3.68;100.00;98997.69;2601224;28;20060;-86
2022/12/27 03:44:24;;;;;;;4.63;2.65;;;;;;;3.73;100.00;98999.47;2602175;28;20076;-87
2022/12/27 03:46:34;;;;;;;4.97;3.15;;;;;;;3.84;100.00;99008.19;2600444;28;20131;-87
2022/12/27 03:48:02;;;;;;;10.73;2.88;;;;;;;3.87;100.00;99016.00;2600946;28;20052;-88
2022/12/27 03:49:29;;;;;;;6.45;3.55;;;;;;;3.95;100.00;99018.66;2602655;28;20058;-88
2022/12/27 03:50:53;;;;;;;6.82;3.22;;;;;;;4.02;100.00;99024.75;2601613;28;20524;-91
2022/12/27 03:52:18;;;;;;;6.90;3.15;;;;;;;4.06;100.00;99029.97;2602540;28;20075;-86
2022/12/27 03:53:38;;;;;;;5.07;3.35;;;;;;;4.20;100.00;99019.69;2601369;28;20220;-90
2022/12/27 03:54:54;;;;;;;5.35;3.13;;;;;;;4.08;100.00;99017.91;2621681;28;20568;-88
2022/12/27 03:56:11;;;;;;;6.00;3.00;;;;;;;4.08;100.00;99024.78;2614925;28;20509;-88
2022/12/27 03:57:27;;;;;;;7.15;3.55;;;;;;;4.08;100.00;99037.75;2602633;28;20056;-88
2022/12/27 03:58:43;;;;;;;7.38;3.95;;;;;;;4.20;100.00;99032.66;2603472;28;20127;-87
2022/12/27 03:59:58;;;;;;;6.00;3.67;;;;;;;4.20;100.00;99037.00;2603894;28;20154;-88
2022/12/27 04:01:14;;;;;;;6.25;3.42;;;;;;;4.01;100.00;99042.00;2600698;28;20049;-88
2022/12/27 04:02:29;;;;;;;5.53;3.50;;;;;;;4.05;100.00;99041.19;2600982;28;20064;-87
2022/12/27 04:03:45;;;;;;;5.35;3.05;;;;;;;4.00;100.00;99045.47;2602923;28;20059;-88
2022/12/27 04:05:01;;;;;;;7.00;3.85;;;;;;;4.16;100.00;99046.47;2601189;28;20064;-89
2022/12/27 04:06:16;;;;;;;6.65;3.90;;;;;;;4.08;100.00;99051.59;2600468;28;20053;-88
2022/12/27 04:07:32;;;;;;;6.05;3.17;;;;;;;3.96;100.00;99061.84;2600834;28;20068;-88
2022/12/27 04:35:30;;;;;;;6.38;3.33;;;;;;;3.12;100.00;99086.84;2601945;28;20729;-88
2022/12/27 04:36:46;;;;;;;6.10;3.33;;;;;;;3.33;100.00;99091.41;2602467;28;20048;-88
2022/12/27 04:38:02;;;;;;;5.47;3.45;;;;;;;3.26;100.00;99087.00;2600408;28;20614;-87
2022/12/27 04:39:18;;;;;;;7.93;3.65;;;;;;;3.17;100.00;99087.75;2602723;28;20092;-87
2022/12/27 04:54:57;;;;;;;9.75;4.13;;;;;;;3.05;100.00;99110.88;2599079;28;20041;-86
2022/12/27 04:56:13;;;;;;;7.55;3.20;;;;;;;3.12;100.00;99115.31;2600232;28;20057;-87
2022/12/27 04:57:28;;;;;;;5.82;3.67;;;;;;;3.07;100.00;99119.53;2601476;28;20468;-87
2022/12/27 05:02:02;;;;;;;7.18;3.47;;;;;;;2.93;100.00;99119.38;2600481;28;20138;-88
2022/12/27 05:03:22;;;;;;;7.10;3.20;;;;;;;3.00;100.00;99123.75;2600695;28;20102;-87
2022/12/27 05:04:38;;;;;;;6.20;3.00;;;;;;;2.76;100.00;99125.16;2600885;28;20408;-88
2022/12/27 05:05:54;;;;;;;6.50;3.08;;;;;;;2.67;100.00;99127.63;2601313;28;20060;-88
2022/12/27 05:13:59;;;;;;;6.00;3.08;;;;;;;2.33;100.00;99140.03;2610968;28;20194;-88
2022/12/27 05:15:15;;;;;;;6.05;3.13;;;;;;;2.30;100.00;99140.81;2605485;28;20060;-88
2022/12/27 05:16:34;;;;;;;7.20;3.20;;;;;;;2.10;100.00;99140.47;2603010;28;20044;-88
2022/12/27 05:17:50;;;;;;;5.97;3.25;;;;;;;2.23;100.00;99139.84;2601730;28;20497;-88
2022/12/27 05:19:08;;;;;;;5.47;3.20;;;;;;;2.29;100.00;99141.66;2599876;28;20155;-89
2022/12/27 05:20:23;;;;;;;8.45;4.10;;;;;;;2.36;100.00;99142.66;2602756;28;20049;-88
2022/12/27 05:26:27;;;;;;;6.53;3.47;;;;;;;2.01;100.00;99153.22;2600615;28;20393;-88
2022/12/27 05:27:42;;;;;;;6.18;3.65;;;;;;;2.13;100.00;99157.75;2601479;28;20049;-88
2022/12/27 05:28:59;;;;;;;6.28;3.08;;;;;;;2.14;100.00;99155.19;2602203;28;20140;-90
2022/12/27 05:30:15;;;;;;;7.57;3.53;;;;;;;2.26;100.00;99157.13;2597029;28;20160;-88
2022/12/27 05:31:31;;;;;;;7.32;4.10;;;;;;;2.29;100.00;99161.47;2601541;28;20071;-88
2022/12/27 05:32:46;;;;;;;6.10;2.92;;;;;;;2.33;100.00;99164.13;2600872;28;20051;-88
2022/12/27 05:34:04;;;;;;;4.53;2.80;;;;;;;2.34;100.00;99165.00;2600561;28;20045;-89
2022/12/27 05:35:20;;;;;;;8.32;2.83;;;;;;;2.34;100.00;99168.44;2600780;28;20044;-87
2022/12/27 05:36:35;;;;;;;4.72;2.47;;;;;;;2.10;100.00;99163.72;2600729;28;20080;-88
2022/12/27 05:37:53;;;;;;;5.93;2.67;;;;;;;2.18;100.00;99171.63;2600355;28;20128;-87
2022/12/27 05:39:09;;;;;;;4.22;1.90;;;;;;;2.06;100.00;99174.84;2601698;28;20068;-87
2022/12/27 05:40:25;;;;;;;4.00;1.92;;;;;;;2.10;100.00;99172.38;2600798;28;20490;-87
2022/12/27 05:41:41;;;;;;;3.95;2.20;;;;;;;2.23;100.00;99175.13;2601682;28;20053;-90
2022/12/27 05:43:01;;;;;;;7.45;2.40;;;;;;;2.01;100.00;99174.78;2601588;28;20509;-87
2022/12/27 05:44:16;;;;;;;3.42;1.95;;;;;;;2.15;100.00;99174.16;2602108;28;20049;-91
2022/12/27 05:45:32;;;;;;;3.25;2.05;;;;;;;2.12;100.00;99185.28;2601523;28;20076;-87
2022/12/27 05:46:48;;;;;;;3.80;2.00;;;;;;;1.96;100.00;99186.75;2601324;28;20057;-89
2022/12/27 05:48:04;;;;;;;4.60;2.15;;;;;;;2.05;100.00;99180.88;2601771;28;20057;-88
2022/12/27 05:49:19;;;;;;;6.93;2.33;;;;;;;2.04;100.00;99182.56;2599326;28;20045;-87
2022/12/27 05:50:35;;;;;;;3.00;1.65;;;;;;;2.06;100.00;99186.03;2601380;28;20559;-87
2022/12/27 05:51:51;;;;;;;3.78;1.85;;;;;;;2.13;100.00;99184.44;2601815;28;20083;-87
2022/12/27 05:53:06;;;;;;;3.17;1.77;;;;;;;2.09;100.00;99183.50;2600534;28;20594;-87
2022/12/27 05:54:22;;;;;;;2.92;1.90;;;;;;;2.09;100.00;99178.34;2600667;28;20045;-91
2022/12/27 05:55:38;;;;;;;2.35;1.52;;;;;;;1.92;100.00;99178.06;2601121;28;20053;-88
2022/12/27 05:56:53;;;;;;;2.25;1.50;;;;;;;1.76;100.00;99188.94;2599892;28;20602;-87
2022/12/27 05:58:09;;;;;;;1.77;1.52;;;;;;;1.98;100.00;99182.47;2600139;28;20053;-89
2022/12/27 05:59:24;;;;;;;2.30;1.50;;;;;;;1.88;100.00;99188.28;2601027;28;20049;-88
2022/12/27 06:00:40;;;;;;;2.85;1.17;;;;;;;1.77;100.00;99186.38;2600622;28;20412;-87
2022/12/27 06:01:56;;;;;;;3.08;1.38;;;;;;;1.77;100.00;99188.94;2600138;28;20087;-87
2022/12/27 06:03:11;;;;;;;3.00;1.90;;;;;;;1.75;100.00;99187.19;2600687;28;20041;-87
2022/12/27 06:04:27;;;;;;;3.60;1.77;;;;;;;1.91;100.00;99180.59;2602704;28;20095;-87
2022/12/27 06:05:43;;;;;;;2.97;1.88;;;;;;;1.91;100.00;99188.34;2602458;28;20054;-88
2022/12/27 06:06:59;;;;;;;3.65;1.90;;;;;;;1.84;100.00;99192.53;2600351;28;20053;-88
2022/12/27 06:08:14;;;;;;;2.88;1.48;;;;;;;1.84;100.00;99195.09;2602668;28;20411;-88
2022/12/27 06:09:30;;;;;;;4.75;1.95;;;;;;;2.08;100.00;99193.84;2599443;28;20488;-88
2022/12/27 06:10:45;;;;;;;2.58;1.70;;;;;;;1.85;100.00;99198.56;2601194;28;20049;-88
2022/12/27 06:12:01;;;;;;;3.58;1.80;;;;;;;1.94;100.00;99203.88;2601455;28;20049;-87
2022/12/27 06:13:17;;;;;;;3.45;1.80;;;;;;;1.81;100.00;99201.06;2600737;28;20042;-88
2022/12/27 06:14:32;;;;;;;4.30;1.83;;;;;;;1.79;100.00;99204.47;2600083;28;20403;-88
2022/12/27 06:15:48;;;;;;;2.42;1.67;;;;;;;1.86;100.00;99206.31;2596139;28;20057;-87
2022/12/27 06:17:04;;;;;;;3.25;2.08;;;;;;;1.86;100.00;99208.91;2599527;28;20052;-88
2022/12/27 06:18:20;;;;;;;5.40;2.10;;;;;;;1.88;100.00;99206.38;2599007;28;20071;-88
2022/12/27 06:19:36;;;;;;;3.33;1.73;;;;;;;1.93;100.00;99197.88;2601558;28;20053;-87
2022/12/27 06:20:52;;;;;;;1.90;1.50;;;;;;;1.69;100.00;99206.00;2601340;28;20451;-87
2022/12/27 06:22:07;;;;;;;3.08;1.55;;;;;;;1.84;100.00;99215.75;2600176;28;20115;-87
2022/12/27 06:23:23;;;;;;;4.95;1.77;;;;;;;1.72;100.00;99211.22;2602895;28;20957;-89
2022/12/27 06:24:38;;;;;;;2.90;1.50;;;;;;;1.77;100.00;99211.31;2601892;28;20049;-89
2022/12/27 06:25:54;;;;;;;3.47;1.58;;;;;;;1.90;100.00;99215.00;2600966;28;20420;-88
2022/12/27 06:27:10;;;;;;;3.22;1.70;;;;;;;1.85;100.00;99221.81;2595779;28;20061;-88
2022/12/27 06:28:25;;;;;;;3.10;1.65;;;;;;;1.95;100.00;99218.53;2600085;28;20081;-91
2022/12/27 06:29:41;;;;;;;3.28;1.38;;;;;;;1.91;100.00;99227.06;2599651;28;20053;-90
2022/12/27 06:30:58;;;;;;;2.35;1.40;;;;;;;1.91;100.00;99232.25;2600948;28;20077;-87
2022/12/27 06:32:16;;;;;;;1.95;1.45;;;;;;;1.84;100.00;99233.84;2603109;28;20053;-87
2022/12/27 06:33:32;;;;;;;3.45;1.70;;;;;;;1.97;100.00;99235.81;2597925;28;20057;-87
2022/12/27 06:34:47;;;;;;;3.85;1.48;;;;;;;1.82;100.00;99241.56;2603210;28;20045;-90
2022/12/27 06:36:08;;;;;;;3.10;1.48;;;;;;;1.83;100.00;99238.16;2602138;28;20084;-87
2022/12/27 06:37:23;;;;;;;2.67;1.23;;;;;;;1.45;100.00;99240.78;2602283;28;20049;-87
2022/12/27 06:38:40;;;;;;;1.80;1.45;;;;;;;1.74;100.00;99243.09;2603166;28;20446;-88
2022/12/27 06:39:56;;;;;;;3.28;1.70;;;;;;;1.81;100.00;99241.53;2604049;28;20949;-88
2022/12/27 06:41:14;;;;;;;1.55;1.20;;;;;;;1.81;100.00;99247.53;2604070;28;20159;-88
2022/12/27 06:42:30;;;;;;;3.22;1.80;;;;;;;1.85;100.00;99247.63;2597908;28;20056;-87
2022/12/27 06:43:46;;;;;;;2.30;1.27;;;;;;;1.86;100.00;99249.38;2604187;28;20049;-88
2022/12/27 06:45:01;;;;;;;4.32;1.50;;;;;;;1.88;100.00;99242.53;2604470;28;20484;-87
2022/12/27 06:46:17;;;;;;;3.60;1.55;;;;;;;1.95;100.00;99254.69;2602222;28;20092;-87
2022/12/27 06:47:33;;;;;;;3.25;1.45;;;;;;;1.48;100.00;99253.75;2602517;28;20049;-87
2022/12/27 06:48:49;;;;;;;3.72;1.70;;;;;;;1.80;100.00;99256.13;2601274;28;20152;-88
2022/12/27 06:50:05;;;;;;;2.72;1.35;;;;;;;1.90;100.00;99253.75;2597937;28;20050;-87
2022/12/27 06:51:21;;;;;;;3.05;1.75;;;;;;;1.96;100.00;99254.75;2601957;28;20591;-87
2022/12/27 06:52:36;;;;;;;4.97;2.20;;;;;;;1.47;100.00;99264.06;2601604;28;20049;-87
2022/12/27 06:53:52;;;;;;;4.22;1.90;;;;;;;1.64;100.00;99264.41;2602285;28;20497;-87
2022/12/27 06:55:07;;;;;;;3.63;1.73;;;;;;;1.76;100.00;99258.66;2603379;28;20539;-87
2022/12/27 06:56:23;;;;;;;2.13;1.42;;;;;;;1.79;100.00;99259.56;2600403;28;20916;-88
2022/12/27 06:57:39;;;;;;;3.40;1.63;;;;;;;1.86;100.00;99264.88;2602372;28;20049;-88
2022/12/27 06:58:54;;;;;;;2.88;1.58;;;;;;;1.82;100.00;99267.38;2603202;28;20140;-88
2022/12/27 07:00:12;;;;;;;5.45;1.60;;;;;;;1.64;100.00;99274.72;2602496;28;20069;-87
2022/12/27 07:01:28;;;;;;;3.75;2.13;;;;;;;1.69;100.00;99274.00;2597840;28;20045;-87
2022/12/27 07:02:43;;;;;;;5.15;1.67;;;;;;;1.37;100.00;99275.84;2602645;28;20083;-89
2022/12/27 07:04:02;;;;;;;3.67;1.80;;;;;;;1.29;100.00;99274.81;2601516;28;20506;-88
2022/12/27 07:05:17;;;;;;;6.82;2.10;;;;;;;1.42;100.00;99279.44;2601709;28;20113;-88
2022/12/27 07:06:35;;;;;;;3.58;1.92;;;;;;;1.46;100.00;99272.59;2601960;28;20056;-87
2022/12/27 07:07:53;;;;;;;3.53;1.98;;;;;;;1.36;100.00;99275.00;2601692;28;20516;-88
2022/12/27 07:09:08;;;;;;;5.60;1.98;;;;;;;1.47;100.00;99274.38;2601729;28;20103;-87
2022/12/27 07:10:24;;;;;;;7.00;2.20;;;;;;;1.41;100.00;99275.13;2602930;28;20458;-87
2022/12/27 07:11:39;;;;;;;5.43;2.28;;;;;;;1.48;100.00;99279.56;2597884;28;20511;-87
2022/12/27 07:12:56;;;;;;;6.40;2.33;;;;;;;1.59;100.00;99277.19;2602800;28;20087;-86
2022/12/27 07:14:11;;;;;;;4.25;1.80;;;;;;;1.64;100.00;99285.94;2602459;28;20045;-87
2022/12/27 07:15:27;;;;;;;4.45;1.90;;;;;;;1.61;100.00;99282.41;2602261;28;20578;-86
2022/12/27 07:16:42;;;;;;;4.60;1.90;;;;;;;1.65;100.00;99287.69;2603656;28;20125;-88
2022/12/27 07:17:58;;;;;;;6.63;2.30;;;;;;;1.58;100.00;99296.09;2602012;28;20083;-86
2022/12/27 07:19:14;;;;;;;4.00;1.70;;;;;;;1.32;100.00;99295.53;2603909;28;20107;-86
2022/12/27 07:20:29;;;;;;;4.63;1.80;;;;;;;1.43;100.00;99299.25;2601435;28;20046;-85
2022/12/27 07:21:45;;;;;;;6.75;1.65;;;;;;;1.52;100.00;99299.41;2597538;28;20066;-85
2022/12/27 07:23:01;;;;;;;4.93;1.50;;;;;;;1.33;100.00;99305.91;2604131;28;20048;-85
2022/12/27 07:24:17;;;;;;;5.03;1.58;;;;;;;1.19;100.00;99313.28;2602644;28;20437;-85
2022/12/27 07:25:32;;;;;;;4.82;2.08;;;;;;;1.27;100.00;99319.53;2601378;28;20099;-85
2022/12/27 07:26:48;;;;;;;2.13;1.40;;;;;;;1.35;100.00;99318.81;2602180;28;20049;-86
2022/12/27 07:28:04;;;;;;;5.38;1.73;;;;;;;1.63;100.00;99317.75;2600938;28;20053;-86
2022/12/27 07:29:19;;;;;;;3.38;1.70;;;;;;;1.62;100.00;99320.28;2603845;28;20556;-86
2022/12/27 07:30:38;;;;;;;3.15;1.45;;;;;;;1.54;100.00;99322.69;2601635;28;20050;-85
2022/12/27 07:31:54;;;;;;;4.22;1.70;;;;;;;1.54;100.00;99327.84;2603806;28;20135;-90
2022/12/27 07:33:10;;;;;;;5.45;1.70;;;;;;;1.59;100.00;99315.06;2602451;28;20060;-88
2022/12/27 07:34:25;;;;;;;3.22;1.30;;;;;;;1.71;100.00;99323.09;2602242;28;20133;-87
2022/12/27 07:35:40;;;;;;;4.43;1.55;;;;;;;1.82;100.00;99323.31;2602394;28;20531;-86
2022/12/27 07:36:56;;;;;;;1.83;1.17;;;;;;;1.59;100.00;99328.81;2599233;28;20587;-84
2022/12/27 07:38:12;;;;;;;3.90;1.60;;;;;;;1.70;100.00;99331.66;2603568;28;20049;-85
2022/12/27 07:39:28;;;;;;;4.38;1.50;;;;;;;1.69;100.00;99329.94;2602599;28;20053;-86
2022/12/27 07:40:43;;;;;;;3.88;1.48;;;;;;;1.85;100.00;99332.84;2602430;28;20068;-85
2022/12/27 07:41:59;;;;;;;4.47;1.58;;;;;;;1.60;100.00;99337.44;2599797;28;20073;-84
2022/12/27 07:43:14;;;;;;;2.95;1.45;;;;;;;1.63;100.00;99340.97;2602459;28;20048;-84
2022/12/27 07:44:30;;;;;;;4.47;1.70;;;;;;;1.56;100.00;99344.25;2598154;28;20552;-88
2022/12/27 07:45:45;;;;;;;5.68;1.63;;;;;;;1.52;100.00;99342.44;2602104;28;20057;-90
2022/12/27 07:47:01;;;;;;;6.45;1.83;;;;;;;1.63;100.00;99345.25;2601326;28;20095;-84
2022/12/27 07:48:17;;;;;;;2.92;1.67;;;;;;;1.60;100.00;99345.19;2596848;28;20729;-85